Warwick, Rhode Island
Current Conditions -  °F | °C
As of 12:51 AM on Wednesday 26 Nov 2014 (Local Time) from KPVD Reporting Station
Clear Clear  
Wind Chill: 44°   Ceiling: Unl
Heat Index: 46°   Visibility: 10mi
Dew Point: 31°   Wind: 5mph
Humidity: 56%   Direction: 260°W
Pressure: 30.13"   Gusts: NA
Location:  41.7°N, 71.46°W
Report Text: KPVD 260551Z AUTO 26004KT 10SM CLR 08/M01 A3013 RMK AO2 SLP204 T00781006 10106 20072 50013
Loading
Personal Weather Stations






























Interactive Weather Map New forecast layout! Learn more

10-Day Weather Forecast

Advertisements
Track Severe Weather on mobile